sensor_id;sensor_type;location;lat;lon;timestamp;P1;durP1;ratioP1;P2;durP2;ratioP2
70545;SDS011;58098;51.680;5.134;2023-05-21T00:01:02;6.63;;;4.57;;
70545;SDS011;58098;51.680;5.134;2023-05-21T00:03:29;6.80;;;4.30;;
70545;SDS011;58098;51.680;5.134;2023-05-21T00:05:55;7.18;;;4.75;;
70545;SDS011;58098;51.680;5.134;2023-05-21T00:08:21;5.60;;;4.57;;
70545;SDS011;58098;51.680;5.134;2023-05-21T00:10:47;5.68;;;4.63;;
70545;SDS011;58098;51.680;5.134;2023-05-21T00:13:12;7.63;;;4.50;;
70545;SDS011;58098;51.680;5.134;2023-05-21T00:15:38;6.17;;;5.10;;
70545;SDS011;58098;51.680;5.134;2023-05-21T00:18:03;6.63;;;5.10;;
70545;SDS011;58098;51.680;5.134;2023-05-21T00:20:29;7.17;;;5.27;;
70545;SDS011;58098;51.680;5.134;2023-05-21T00:22:56;7.80;;;5.30;;
70545;SDS011;58098;51.680;5.134;2023-05-21T00:25:22;6.43;;;5.07;;
70545;SDS011;58098;51.680;5.134;2023-05-21T00:27:47;7.03;;;4.93;;
70545;SDS011;58098;51.680;5.134;2023-05-21T00:30:13;8.70;;;4.85;;
70545;SDS011;58098;51.680;5.134;2023-05-21T00:32:39;6.07;;;5.32;;
70545;SDS011;58098;51.680;5.134;2023-05-21T00:35:04;9.27;;;5.03;;
70545;SDS011;58098;51.680;5.134;2023-05-21T00:37:30;8.90;;;5.22;;
70545;SDS011;58098;51.680;5.134;2023-05-21T00:39:58;11.93;;;5.25;;
70545;SDS011;58098;51.680;5.134;2023-05-21T00:42:23;7.50;;;4.57;;
70545;SDS011;58098;51.680;5.134;2023-05-21T00:44:51;6.53;;;4.38;;
70545;SDS011;58098;51.680;5.134;2023-05-21T00:47:18;5.80;;;4.78;;
70545;SDS011;58098;51.680;5.134;2023-05-21T00:49:45;6.67;;;4.77;;
70545;SDS011;58098;51.680;5.134;2023-05-21T00:52:12;5.35;;;4.80;;
70545;SDS011;58098;51.680;5.134;2023-05-21T00:54:38;7.32;;;5.03;;
70545;SDS011;58098;51.680;5.134;2023-05-21T00:57:03;7.70;;;5.10;;
70545;SDS011;58098;51.680;5.134;2023-05-21T00:59:30;6.78;;;5.25;;
70545;SDS011;58098;51.680;5.134;2023-05-21T01:01:56;7.38;;;5.10;;
70545;SDS011;58098;51.680;5.134;2023-05-21T01:04:28;8.00;;;4.85;;
70545;SDS011;58098;51.680;5.134;2023-05-21T01:06:54;7.82;;;5.38;;
70545;SDS011;58098;51.680;5.134;2023-05-21T01:09:20;8.23;;;5.47;;
70545;SDS011;58098;51.680;5.134;2023-05-21T01:11:46;6.25;;;4.57;;
70545;SDS011;58098;51.680;5.134;2023-05-21T01:14:14;14.57;;;5.10;;
70545;SDS011;58098;51.680;5.134;2023-05-21T01:16:40;7.28;;;5.00;;
70545;SDS011;58098;51.680;5.134;2023-05-21T01:19:12;6.00;;;4.88;;
70545;SDS011;58098;51.680;5.134;2023-05-21T01:21:43;5.97;;;5.20;;
70545;SDS011;58098;51.680;5.134;2023-05-21T01:24:10;5.20;;;4.30;;
70545;SDS011;58098;51.680;5.134;2023-05-21T01:26:35;8.67;;;4.57;;
70545;SDS011;58098;51.680;5.134;2023-05-21T01:29:05;7.88;;;5.00;;
70545;SDS011;58098;51.680;5.134;2023-05-21T01:34:20;8.90;;;4.90;;
70545;SDS011;58098;51.680;5.134;2023-05-21T01:36:52;6.80;;;4.90;;
70545;SDS011;58098;51.680;5.134;2023-05-21T01:39:31;10.18;;;4.95;;
70545;SDS011;58098;51.680;5.134;2023-05-21T01:42:00;7.47;;;5.20;;
70545;SDS011;58098;51.680;5.134;2023-05-21T01:44:27;7.23;;;4.60;;
70545;SDS011;58098;51.680;5.134;2023-05-21T01:46:54;6.93;;;4.97;;
70545;SDS011;58098;51.680;5.134;2023-05-21T01:49:21;9.93;;;4.85;;
70545;SDS011;58098;51.680;5.134;2023-05-21T01:51:47;11.77;;;5.28;;
70545;SDS011;58098;51.680;5.134;2023-05-21T01:54:13;8.33;;;5.13;;
70545;SDS011;58098;51.680;5.134;2023-05-21T01:56:38;8.83;;;4.90;;
70545;SDS011;58098;51.680;5.134;2023-05-21T01:59:04;7.30;;;5.57;;
70545;SDS011;58098;51.680;5.134;2023-05-21T02:01:29;8.43;;;5.22;;
70545;SDS011;58098;51.680;5.134;2023-05-21T02:03:55;6.80;;;5.50;;
70545;SDS011;58098;51.680;5.134;2023-05-21T02:06:21;7.65;;;5.45;;
70545;SDS011;58098;51.680;5.134;2023-05-21T02:08:47;8.27;;;5.73;;
70545;SDS011;58098;51.680;5.134;2023-05-21T02:11:12;7.67;;;5.30;;
70545;SDS011;58098;51.680;5.134;2023-05-21T02:13:38;7.35;;;5.63;;
70545;SDS011;58098;51.680;5.134;2023-05-21T02:16:06;9.35;;;5.55;;
70545;SDS011;58098;51.680;5.134;2023-05-21T02:18:35;9.03;;;5.43;;
70545;SDS011;58098;51.680;5.134;2023-05-21T02:21:01;6.60;;;5.20;;
70545;SDS011;58098;51.680;5.134;2023-05-21T02:23:26;7.20;;;5.30;;
70545;SDS011;58098;51.680;5.134;2023-05-21T02:25:51;9.90;;;5.50;;
70545;SDS011;58098;51.680;5.134;2023-05-21T02:28:17;7.27;;;5.53;;
70545;SDS011;58098;51.680;5.134;2023-05-21T02:30:42;7.13;;;5.70;;
70545;SDS011;58098;51.680;5.134;2023-05-21T02:33:08;7.17;;;5.53;;
70545;SDS011;58098;51.680;5.134;2023-05-21T02:35:33;6.53;;;5.63;;
70545;SDS011;58098;51.680;5.134;2023-05-21T02:37:58;7.00;;;5.30;;
70545;SDS011;58098;51.680;5.134;2023-05-21T02:40:26;8.65;;;5.75;;
70545;SDS011;58098;51.680;5.134;2023-05-21T02:42:52;6.97;;;5.30;;
70545;SDS011;58098;51.680;5.134;2023-05-21T02:45:17;7.07;;;5.30;;
70545;SDS011;58098;51.680;5.134;2023-05-21T02:47:42;8.20;;;5.40;;
70545;SDS011;58098;51.680;5.134;2023-05-21T02:50:08;8.33;;;5.93;;
70545;SDS011;58098;51.680;5.134;2023-05-21T02:52:33;7.13;;;5.43;;
70545;SDS011;58098;51.680;5.134;2023-05-21T02:54:59;8.63;;;5.37;;
70545;SDS011;58098;51.680;5.134;2023-05-21T02:57:24;9.47;;;5.77;;
70545;SDS011;58098;51.680;5.134;2023-05-21T02:59:50;8.57;;;5.77;;
70545;SDS011;58098;51.680;5.134;2023-05-21T03:02:15;8.87;;;5.23;;
70545;SDS011;58098;51.680;5.134;2023-05-21T03:04:41;8.40;;;5.28;;
70545;SDS011;58098;51.680;5.134;2023-05-21T03:07:10;7.55;;;5.65;;
70545;SDS011;58098;51.680;5.134;2023-05-21T03:09:39;8.30;;;5.43;;
70545;SDS011;58098;51.680;5.134;2023-05-21T03:12:08;8.55;;;5.47;;
70545;SDS011;58098;51.680;5.134;2023-05-21T03:14:34;9.15;;;6.10;;
70545;SDS011;58098;51.680;5.134;2023-05-21T03:16:59;9.60;;;5.87;;
70545;SDS011;58098;51.680;5.134;2023-05-21T03:19:25;8.40;;;5.60;;
70545;SDS011;58098;51.680;5.134;2023-05-21T03:21:50;6.00;;;5.30;;
70545;SDS011;58098;51.680;5.134;2023-05-21T03:24:15;10.40;;;6.28;;
70545;SDS011;58098;51.680;5.134;2023-05-21T03:26:41;8.73;;;5.97;;
70545;SDS011;58098;51.680;5.134;2023-05-21T03:29:06;7.93;;;6.03;;
70545;SDS011;58098;51.680;5.134;2023-05-21T03:31:31;9.80;;;5.30;;
70545;SDS011;58098;51.680;5.134;2023-05-21T03:33:57;9.67;;;5.83;;
70545;SDS011;58098;51.680;5.134;2023-05-21T03:36:22;9.47;;;6.17;;
70545;SDS011;58098;51.680;5.134;2023-05-21T03:38:47;7.87;;;6.03;;
70545;SDS011;58098;51.680;5.134;2023-05-21T03:41:13;7.70;;;6.03;;
70545;SDS011;58098;51.680;5.134;2023-05-21T03:43:38;8.37;;;5.83;;
70545;SDS011;58098;51.680;5.134;2023-05-21T03:46:03;9.27;;;5.47;;
70545;SDS011;58098;51.680;5.134;2023-05-21T03:48:29;10.03;;;5.97;;
70545;SDS011;58098;51.680;5.134;2023-05-21T03:50:54;8.97;;;6.23;;
70545;SDS011;58098;51.680;5.134;2023-05-21T03:53:20;8.70;;;5.83;;
70545;SDS011;58098;51.680;5.134;2023-05-21T03:55:45;9.18;;;5.88;;
70545;SDS011;58098;51.680;5.134;2023-05-21T03:58:11;10.73;;;6.30;;
70545;SDS011;58098;51.680;5.134;2023-05-21T04:00:36;10.97;;;5.90;;
70545;SDS011;58098;51.680;5.134;2023-05-21T04:03:02;7.18;;;5.43;;
70545;SDS011;58098;51.680;5.134;2023-05-21T04:05:28;10.47;;;5.70;;
70545;SDS011;58098;51.680;5.134;2023-05-21T04:07:53;7.32;;;5.60;;
70545;SDS011;58098;51.680;5.134;2023-05-21T04:10:19;8.07;;;5.73;;
70545;SDS011;58098;51.680;5.134;2023-05-21T04:12:44;9.97;;;6.60;;
70545;SDS011;58098;51.680;5.134;2023-05-21T04:15:10;7.43;;;5.53;;
70545;SDS011;58098;51.680;5.134;2023-05-21T04:17:36;11.00;;;7.20;;
70545;SDS011;58098;51.680;5.134;2023-05-21T04:20:01;10.07;;;6.00;;
70545;SDS011;58098;51.680;5.134;2023-05-21T04:22:28;10.15;;;6.95;;
70545;SDS011;58098;51.680;5.134;2023-05-21T04:24:53;8.63;;;6.50;;
70545;SDS011;58098;51.680;5.134;2023-05-21T04:27:19;7.50;;;6.10;;
70545;SDS011;58098;51.680;5.134;2023-05-21T04:29:47;8.63;;;6.57;;
70545;SDS011;58098;51.680;5.134;2023-05-21T04:32:14;7.93;;;5.78;;
70545;SDS011;58098;51.680;5.134;2023-05-21T04:34:41;11.05;;;6.60;;
70545;SDS011;58098;51.680;5.134;2023-05-21T04:37:07;7.17;;;5.87;;
70545;SDS011;58098;51.680;5.134;2023-05-21T04:39:33;8.32;;;6.53;;
70545;SDS011;58098;51.680;5.134;2023-05-21T04:41:58;10.30;;;5.73;;
70545;SDS011;58098;51.680;5.134;2023-05-21T04:44:24;10.47;;;6.70;;
70545;SDS011;58098;51.680;5.134;2023-05-21T04:46:49;10.57;;;6.27;;
70545;SDS011;58098;51.680;5.134;2023-05-21T04:49:14;10.07;;;5.80;;
70545;SDS011;58098;51.680;5.134;2023-05-21T04:51:40;10.40;;;6.53;;
70545;SDS011;58098;51.680;5.134;2023-05-21T04:54:05;9.60;;;6.53;;
70545;SDS011;58098;51.680;5.134;2023-05-21T04:56:31;9.80;;;6.88;;
70545;SDS011;58098;51.680;5.134;2023-05-21T04:58:57;8.27;;;6.50;;
70545;SDS011;58098;51.680;5.134;2023-05-21T05:01:22;12.80;;;6.55;;
70545;SDS011;58098;51.680;5.134;2023-05-21T05:03:49;8.88;;;6.60;;
70545;SDS011;58098;51.680;5.134;2023-05-21T05:06:15;10.47;;;6.40;;
70545;SDS011;58098;51.680;5.134;2023-05-21T05:08:41;9.00;;;5.90;;
70545;SDS011;58098;51.680;5.134;2023-05-21T05:11:06;8.07;;;6.23;;
70545;SDS011;58098;51.680;5.134;2023-05-21T05:13:32;7.70;;;6.20;;
70545;SDS011;58098;51.680;5.134;2023-05-21T05:15:58;7.75;;;6.40;;
70545;SDS011;58098;51.680;5.134;2023-05-21T05:18:24;8.37;;;5.97;;
70545;SDS011;58098;51.680;5.134;2023-05-21T05:20:49;8.25;;;6.38;;
70545;SDS011;58098;51.680;5.134;2023-05-21T05:23:15;11.37;;;6.00;;
70545;SDS011;58098;51.680;5.134;2023-05-21T05:25:40;14.17;;;7.10;;
70545;SDS011;58098;51.680;5.134;2023-05-21T05:28:06;10.00;;;6.60;;
70545;SDS011;58098;51.680;5.134;2023-05-21T05:30:31;8.67;;;6.80;;
70545;SDS011;58098;51.680;5.134;2023-05-21T05:32:57;7.20;;;6.10;;
70545;SDS011;58098;51.680;5.134;2023-05-21T05:35:22;9.23;;;6.50;;
70545;SDS011;58098;51.680;5.134;2023-05-21T05:37:47;12.93;;;6.60;;
70545;SDS011;58098;51.680;5.134;2023-05-21T05:40:12;9.90;;;6.30;;
70545;SDS011;58098;51.680;5.134;2023-05-21T05:42:38;7.87;;;6.57;;
70545;SDS011;58098;51.680;5.134;2023-05-21T05:45:03;7.53;;;6.30;;
70545;SDS011;58098;51.680;5.134;2023-05-21T05:47:29;8.60;;;6.20;;
70545;SDS011;58098;51.680;5.134;2023-05-21T05:49:55;9.75;;;5.78;;
70545;SDS011;58098;51.680;5.134;2023-05-21T05:52:20;9.87;;;6.50;;
70545;SDS011;58098;51.680;5.134;2023-05-21T05:54:46;7.90;;;6.13;;
70545;SDS011;58098;51.680;5.134;2023-05-21T05:57:11;16.20;;;6.57;;
70545;SDS011;58098;51.680;5.134;2023-05-21T05:59:36;9.87;;;7.40;;
70545;SDS011;58098;51.680;5.134;2023-05-21T06:02:02;9.33;;;6.30;;
70545;SDS011;58098;51.680;5.134;2023-05-21T06:04:27;8.20;;;6.30;;
70545;SDS011;58098;51.680;5.134;2023-05-21T06:06:54;12.35;;;7.13;;
70545;SDS011;58098;51.680;5.134;2023-05-21T06:09:23;8.07;;;6.15;;
70545;SDS011;58098;51.680;5.134;2023-05-21T06:11:48;9.80;;;6.35;;
70545;SDS011;58098;51.680;5.134;2023-05-21T06:14:14;8.60;;;7.17;;
70545;SDS011;58098;51.680;5.134;2023-05-21T06:16:39;8.10;;;6.60;;
70545;SDS011;58098;51.680;5.134;2023-05-21T06:19:05;10.90;;;6.87;;
70545;SDS011;58098;51.680;5.134;2023-05-21T06:21:30;12.32;;;7.60;;
70545;SDS011;58098;51.680;5.134;2023-05-21T06:23:55;11.60;;;6.87;;
70545;SDS011;58098;51.680;5.134;2023-05-21T06:26:21;10.73;;;7.90;;
70545;SDS011;58098;51.680;5.134;2023-05-21T06:28:47;9.65;;;6.82;;
70545;SDS011;58098;51.680;5.134;2023-05-21T06:31:12;10.87;;;6.93;;
70545;SDS011;58098;51.680;5.134;2023-05-21T06:33:38;9.20;;;6.70;;
70545;SDS011;58098;51.680;5.134;2023-05-21T06:36:03;8.68;;;6.80;;
70545;SDS011;58098;51.680;5.134;2023-05-21T06:38:29;10.97;;;6.87;;
70545;SDS011;58098;51.680;5.134;2023-05-21T06:40:54;10.10;;;7.70;;
70545;SDS011;58098;51.680;5.134;2023-05-21T06:43:19;10.03;;;6.43;;
70545;SDS011;58098;51.680;5.134;2023-05-21T06:45:45;10.63;;;7.37;;
70545;SDS011;58098;51.680;5.134;2023-05-21T06:48:10;11.87;;;6.57;;
70545;SDS011;58098;51.680;5.134;2023-05-21T06:50:36;10.77;;;7.10;;
70545;SDS011;58098;51.680;5.134;2023-05-21T06:53:01;10.50;;;7.20;;
70545;SDS011;58098;51.680;5.134;2023-05-21T06:55:27;10.33;;;7.53;;
70545;SDS011;58098;51.680;5.134;2023-05-21T06:57:52;8.93;;;6.93;;
70545;SDS011;58098;51.680;5.134;2023-05-21T07:00:18;10.53;;;7.43;;
70545;SDS011;58098;51.680;5.134;2023-05-21T07:02:43;10.70;;;6.90;;
70545;SDS011;58098;51.680;5.134;2023-05-21T07:05:08;12.13;;;6.90;;
70545;SDS011;58098;51.680;5.134;2023-05-21T07:07:34;10.52;;;6.72;;
70545;SDS011;58098;51.680;5.134;2023-05-21T07:09:59;9.17;;;6.87;;
70545;SDS011;58098;51.680;5.134;2023-05-21T07:12:24;10.77;;;7.47;;
70545;SDS011;58098;51.680;5.134;2023-05-21T07:14:50;9.33;;;7.17;;
70545;SDS011;58098;51.680;5.134;2023-05-21T07:17:15;10.77;;;6.60;;
70545;SDS011;58098;51.680;5.134;2023-05-21T07:19:40;9.63;;;6.90;;
70545;SDS011;58098;51.680;5.134;2023-05-21T07:22:05;11.50;;;6.50;;
70545;SDS011;58098;51.680;5.134;2023-05-21T07:24:31;9.70;;;6.97;;
70545;SDS011;58098;51.680;5.134;2023-05-21T07:26:56;11.93;;;7.25;;
70545;SDS011;58098;51.680;5.134;2023-05-21T07:29:21;12.00;;;7.03;;
70545;SDS011;58098;51.680;5.134;2023-05-21T07:31:47;8.23;;;6.23;;
70545;SDS011;58098;51.680;5.134;2023-05-21T07:34:12;11.80;;;7.60;;
70545;SDS011;58098;51.680;5.134;2023-05-21T07:36:37;11.07;;;6.33;;
70545;SDS011;58098;51.680;5.134;2023-05-21T07:39:03;12.37;;;8.03;;
70545;SDS011;58098;51.680;5.134;2023-05-21T07:41:28;8.50;;;7.13;;
70545;SDS011;58098;51.680;5.134;2023-05-21T07:43:54;10.73;;;6.87;;
70545;SDS011;58098;51.680;5.134;2023-05-21T07:46:19;10.00;;;7.90;;
70545;SDS011;58098;51.680;5.134;2023-05-21T07:48:45;11.43;;;6.70;;
70545;SDS011;58098;51.680;5.134;2023-05-21T07:51:12;11.30;;;7.10;;
70545;SDS011;58098;51.680;5.134;2023-05-21T07:53:37;9.93;;;7.28;;
70545;SDS011;58098;51.680;5.134;2023-05-21T07:56:03;11.20;;;7.10;;
70545;SDS011;58098;51.680;5.134;2023-05-21T07:58:28;11.60;;;7.53;;
70545;SDS011;58098;51.680;5.134;2023-05-21T08:00:54;11.45;;;7.55;;
70545;SDS011;58098;51.680;5.134;2023-05-21T08:03:21;10.85;;;7.22;;
70545;SDS011;58098;51.680;5.134;2023-05-21T08:05:47;11.93;;;7.30;;
70545;SDS011;58098;51.680;5.134;2023-05-21T08:08:16;9.75;;;7.15;;
70545;SDS011;58098;51.680;5.134;2023-05-21T08:10:42;10.80;;;7.70;;
70545;SDS011;58098;51.680;5.134;2023-05-21T08:13:08;13.10;;;7.87;;
70545;SDS011;58098;51.680;5.134;2023-05-21T08:15:35;11.10;;;7.70;;
70545;SDS011;58098;51.680;5.134;2023-05-21T08:18:00;14.87;;;7.60;;
70545;SDS011;58098;51.680;5.134;2023-05-21T08:20:26;12.17;;;8.23;;
70545;SDS011;58098;51.680;5.134;2023-05-21T08:22:51;9.65;;;7.40;;
70545;SDS011;58098;51.680;5.134;2023-05-21T08:25:17;9.80;;;7.60;;
70545;SDS011;58098;51.680;5.134;2023-05-21T08:27:43;11.27;;;7.10;;
70545;SDS011;58098;51.680;5.134;2023-05-21T08:30:08;10.77;;;7.63;;
70545;SDS011;58098;51.680;5.134;2023-05-21T08:32:37;11.90;;;7.63;;
70545;SDS011;58098;51.680;5.134;2023-05-21T08:35:02;11.20;;;7.20;;
70545;SDS011;58098;51.680;5.134;2023-05-21T08:37:28;14.00;;;8.40;;
70545;SDS011;58098;51.680;5.134;2023-05-21T08:39:53;10.60;;;7.70;;
70545;SDS011;58098;51.680;5.134;2023-05-21T08:42:32;12.15;;;6.95;;
70545;SDS011;58098;51.680;5.134;2023-05-21T08:44:59;11.50;;;7.90;;
70545;SDS011;58098;51.680;5.134;2023-05-21T08:47:25;10.43;;;7.45;;
70545;SDS011;58098;51.680;5.134;2023-05-21T08:49:53;10.95;;;7.90;;
70545;SDS011;58098;51.680;5.134;2023-05-21T08:52:19;10.63;;;7.18;;
70545;SDS011;58098;51.680;5.134;2023-05-21T08:54:45;11.60;;;7.20;;
70545;SDS011;58098;51.680;5.134;2023-05-21T08:57:14;11.90;;;7.85;;
70545;SDS011;58098;51.680;5.134;2023-05-21T08:59:42;13.95;;;7.95;;
70545;SDS011;58098;51.680;5.134;2023-05-21T09:02:12;12.52;;;7.93;;
70545;SDS011;58098;51.680;5.134;2023-05-21T09:04:40;13.27;;;7.97;;
70545;SDS011;58098;51.680;5.134;2023-05-21T09:07:13;11.95;;;7.72;;
70545;SDS011;58098;51.680;5.134;2023-05-21T09:09:41;13.13;;;7.55;;
70545;SDS011;58098;51.680;5.134;2023-05-21T09:12:13;13.10;;;8.07;;
70545;SDS011;58098;51.680;5.134;2023-05-21T09:14:38;11.13;;;7.37;;
70545;SDS011;58098;51.680;5.134;2023-05-21T09:17:06;11.82;;;7.80;;
70545;SDS011;58098;51.680;5.134;2023-05-21T09:19:32;10.93;;;7.30;;
70545;SDS011;58098;51.680;5.134;2023-05-21T09:22:01;10.70;;;7.77;;
70545;SDS011;58098;51.680;5.134;2023-05-21T09:24:29;12.70;;;7.05;;
70545;SDS011;58098;51.680;5.134;2023-05-21T09:26:56;13.88;;;8.05;;
70545;SDS011;58098;51.680;5.134;2023-05-21T09:29:22;11.27;;;7.33;;
70545;SDS011;58098;51.680;5.134;2023-05-21T09:31:48;13.20;;;8.18;;
70545;SDS011;58098;51.680;5.134;2023-05-21T09:34:13;19.40;;;7.43;;
70545;SDS011;58098;51.680;5.134;2023-05-21T09:36:39;12.02;;;7.78;;
70545;SDS011;58098;51.680;5.134;2023-05-21T09:39:04;11.37;;;7.53;;
70545;SDS011;58098;51.680;5.134;2023-05-21T09:41:30;11.70;;;8.40;;
70545;SDS011;58098;51.680;5.134;2023-05-21T09:43:58;11.23;;;8.27;;
70545;SDS011;58098;51.680;5.134;2023-05-21T09:46:27;12.43;;;8.10;;
70545;SDS011;58098;51.680;5.134;2023-05-21T09:49:01;12.73;;;7.95;;
70545;SDS011;58098;51.680;5.134;2023-05-21T09:51:27;12.17;;;7.77;;
70545;SDS011;58098;51.680;5.134;2023-05-21T09:53:54;12.27;;;8.93;;
70545;SDS011;58098;51.680;5.134;2023-05-21T09:56:23;11.88;;;8.23;;
70545;SDS011;58098;51.680;5.134;2023-05-21T09:58:53;12.18;;;8.50;;
70545;SDS011;58098;51.680;5.134;2023-05-21T10:01:30;12.55;;;8.65;;
70545;SDS011;58098;51.680;5.134;2023-05-21T10:03:58;12.17;;;7.53;;
70545;SDS011;58098;51.680;5.134;2023-05-21T10:06:26;11.18;;;8.65;;
70545;SDS011;58098;51.680;5.134;2023-05-21T10:08:53;11.38;;;8.63;;
70545;SDS011;58098;51.680;5.134;2023-05-21T10:11:24;14.32;;;8.77;;
70545;SDS011;58098;51.680;5.134;2023-05-21T10:14:00;13.00;;;8.38;;
70545;SDS011;58098;51.680;5.134;2023-05-21T10:16:29;10.23;;;7.60;;
70545;SDS011;58098;51.680;5.134;2023-05-21T10:18:57;12.63;;;8.23;;
70545;SDS011;58098;51.680;5.134;2023-05-21T10:21:23;12.68;;;8.88;;
70545;SDS011;58098;51.680;5.134;2023-05-21T10:23:50;11.73;;;8.60;;
70545;SDS011;58098;51.680;5.134;2023-05-21T10:26:16;15.67;;;8.93;;
70545;SDS011;58098;51.680;5.134;2023-05-21T10:28:42;12.35;;;8.57;;
70545;SDS011;58098;51.680;5.134;2023-05-21T10:31:09;13.15;;;8.98;;
70545;SDS011;58098;51.680;5.134;2023-05-21T10:33:35;13.90;;;8.60;;
70545;SDS011;58098;51.680;5.134;2023-05-21T10:36:02;11.85;;;8.70;;
70545;SDS011;58098;51.680;5.134;2023-05-21T10:38:28;10.85;;;8.15;;
70545;SDS011;58098;51.680;5.134;2023-05-21T10:40:54;9.70;;;7.93;;
70545;SDS011;58098;51.680;5.134;2023-05-21T10:46:15;14.27;;;9.77;;
70545;SDS011;58098;51.680;5.134;2023-05-21T10:52:02;11.85;;;9.30;;
70545;SDS011;58098;51.680;5.134;2023-05-21T10:55:12;12.30;;;8.65;;
70545;SDS011;58098;51.680;5.134;2023-05-21T11:00:36;17.42;;;8.50;;
70545;SDS011;58098;51.680;5.134;2023-05-21T11:03:02;13.90;;;8.23;;
70545;SDS011;58098;51.680;5.134;2023-05-21T11:05:36;15.02;;;8.75;;
70545;SDS011;58098;51.680;5.134;2023-05-21T11:08:24;14.88;;;9.00;;
70545;SDS011;58098;51.680;5.134;2023-05-21T11:10:55;14.52;;;8.80;;
70545;SDS011;58098;51.680;5.134;2023-05-21T11:13:25;12.05;;;8.70;;
70545;SDS011;58098;51.680;5.134;2023-05-21T11:19:14;13.38;;;8.25;;
70545;SDS011;58098;51.680;5.134;2023-05-21T11:21:17;14.88;;;8.98;;
70545;SDS011;58098;51.680;5.134;2023-05-21T11:26:14;12.85;;;9.05;;
70545;SDS011;58098;51.680;5.134;2023-05-21T11:28:43;13.13;;;9.10;;
70545;SDS011;58098;51.680;5.134;2023-05-21T11:33:46;11.37;;;8.43;;
70545;SDS011;58098;51.680;5.134;2023-05-21T11:36:11;13.07;;;8.43;;
70545;SDS011;58098;51.680;5.134;2023-05-21T11:38:37;16.53;;;8.97;;
70545;SDS011;58098;51.680;5.134;2023-05-21T11:41:03;10.30;;;8.45;;
70545;SDS011;58098;51.680;5.134;2023-05-21T11:43:29;11.93;;;8.23;;
70545;SDS011;58098;51.680;5.134;2023-05-21T11:45:54;10.98;;;7.63;;
70545;SDS011;58098;51.680;5.134;2023-05-21T11:48:23;14.73;;;8.40;;
70545;SDS011;58098;51.680;5.134;2023-05-21T11:50:49;11.35;;;8.63;;
70545;SDS011;58098;51.680;5.134;2023-05-21T11:53:14;11.53;;;8.30;;
70545;SDS011;58098;51.680;5.134;2023-05-21T11:55:39;14.03;;;8.40;;
70545;SDS011;58098;51.680;5.134;2023-05-21T11:58:11;10.75;;;7.95;;
70545;SDS011;58098;51.680;5.134;2023-05-21T12:00:43;11.90;;;7.95;;
70545;SDS011;58098;51.680;5.134;2023-05-21T12:03:08;9.83;;;8.03;;
70545;SDS011;58098;51.680;5.134;2023-05-21T12:05:46;9.88;;;7.38;;
70545;SDS011;58098;51.680;5.134;2023-05-21T12:08:12;10.50;;;7.77;;
70545;SDS011;58098;51.680;5.134;2023-05-21T12:10:38;11.57;;;8.23;;
70545;SDS011;58098;51.680;5.134;2023-05-21T12:13:06;13.27;;;7.93;;
70545;SDS011;58098;51.680;5.134;2023-05-21T12:15:31;14.23;;;8.97;;
70545;SDS011;58098;51.680;5.134;2023-05-21T12:17:56;12.43;;;8.80;;
70545;SDS011;58098;51.680;5.134;2023-05-21T12:20:24;11.13;;;8.73;;
70545;SDS011;58098;51.680;5.134;2023-05-21T12:22:50;11.02;;;8.35;;
70545;SDS011;58098;51.680;5.134;2023-05-21T12:25:18;12.93;;;8.33;;
70545;SDS011;58098;51.680;5.134;2023-05-21T12:27:44;11.02;;;7.70;;
70545;SDS011;58098;51.680;5.134;2023-05-21T12:30:10;10.00;;;7.65;;
70545;SDS011;58098;51.680;5.134;2023-05-21T12:32:39;12.17;;;8.77;;
70545;SDS011;58098;51.680;5.134;2023-05-21T12:35:07;10.25;;;8.02;;
70545;SDS011;58098;51.680;5.134;2023-05-21T12:37:33;11.03;;;8.43;;
70545;SDS011;58098;51.680;5.134;2023-05-21T12:40:00;10.32;;;7.95;;
70545;SDS011;58098;51.680;5.134;2023-05-21T12:42:31;12.38;;;7.78;;
70545;SDS011;58098;51.680;5.134;2023-05-21T12:44:58;11.15;;;8.07;;
70545;SDS011;58098;51.680;5.134;2023-05-21T12:47:25;17.27;;;8.18;;
70545;SDS011;58098;51.680;5.134;2023-05-21T12:49:58;12.87;;;8.57;;
70545;SDS011;58098;51.680;5.134;2023-05-21T12:52:25;13.32;;;8.35;;
70545;SDS011;58098;51.680;5.134;2023-05-21T12:54:52;12.43;;;8.40;;
70545;SDS011;58098;51.680;5.134;2023-05-21T12:57:19;13.75;;;8.85;;
70545;SDS011;58098;51.680;5.134;2023-05-21T12:59:51;11.57;;;7.93;;
70545;SDS011;58098;51.680;5.134;2023-05-21T13:02:50;11.93;;;8.93;;
70545;SDS011;58098;51.680;5.134;2023-05-21T13:05:08;10.88;;;8.15;;
70545;SDS011;58098;51.680;5.134;2023-05-21T13:07:38;12.27;;;8.75;;
70545;SDS011;58098;51.680;5.134;2023-05-21T13:10:04;13.98;;;9.80;;
70545;SDS011;58098;51.680;5.134;2023-05-21T13:12:30;11.03;;;9.43;;
70545;SDS011;58098;51.680;5.134;2023-05-21T13:14:58;13.23;;;8.18;;
70545;SDS011;58098;51.680;5.134;2023-05-21T13:17:25;14.25;;;8.55;;
70545;SDS011;58098;51.680;5.134;2023-05-21T13:20:10;11.20;;;8.32;;
70545;SDS011;58098;51.680;5.134;2023-05-21T13:22:41;11.20;;;8.40;;
70545;SDS011;58098;51.680;5.134;2023-05-21T13:25:13;15.07;;;9.20;;
70545;SDS011;58098;51.680;5.134;2023-05-21T13:27:40;13.05;;;9.38;;
70545;SDS011;58098;51.680;5.134;2023-05-21T13:30:07;11.52;;;9.07;;
70545;SDS011;58098;51.680;5.134;2023-05-21T13:32:33;11.68;;;9.45;;
70545;SDS011;58098;51.680;5.134;2023-05-21T13:35:00;11.30;;;9.05;;
70545;SDS011;58098;51.680;5.134;2023-05-21T13:37:25;13.43;;;8.97;;
70545;SDS011;58098;51.680;5.134;2023-05-21T13:39:50;13.93;;;9.30;;
70545;SDS011;58098;51.680;5.134;2023-05-21T13:42:16;11.93;;;8.30;;
70545;SDS011;58098;51.680;5.134;2023-05-21T13:44:41;13.10;;;8.32;;
70545;SDS011;58098;51.680;5.134;2023-05-21T13:47:07;15.67;;;9.37;;
70545;SDS011;58098;51.680;5.134;2023-05-21T13:49:34;13.07;;;8.88;;
70545;SDS011;58098;51.680;5.134;2023-05-21T13:52:00;11.88;;;9.00;;
70545;SDS011;58098;51.680;5.134;2023-05-21T13:54:26;9.50;;;7.90;;
70545;SDS011;58098;51.680;5.134;2023-05-21T13:56:52;14.85;;;8.15;;
70545;SDS011;58098;51.680;5.134;2023-05-21T13:59:17;12.67;;;8.13;;
70545;SDS011;58098;51.680;5.134;2023-05-21T14:01:43;11.53;;;9.23;;
70545;SDS011;58098;51.680;5.134;2023-05-21T14:04:09;12.20;;;8.02;;
70545;SDS011;58098;51.680;5.134;2023-05-21T14:06:34;12.02;;;8.30;;
70545;SDS011;58098;51.680;5.134;2023-05-21T14:09:00;12.03;;;8.00;;
70545;SDS011;58098;51.680;5.134;2023-05-21T14:11:26;11.10;;;8.50;;
70545;SDS011;58098;51.680;5.134;2023-05-21T14:13:52;12.15;;;9.00;;
70545;SDS011;58098;51.680;5.134;2023-05-21T14:16:18;11.02;;;8.63;;
70545;SDS011;58098;51.680;5.134;2023-05-21T14:18:44;11.52;;;8.27;;
70545;SDS011;58098;51.680;5.134;2023-05-21T14:21:09;11.13;;;7.97;;
70545;SDS011;58098;51.680;5.134;2023-05-21T14:23:35;12.03;;;8.60;;
70545;SDS011;58098;51.680;5.134;2023-05-21T14:26:00;12.17;;;9.63;;
70545;SDS011;58098;51.680;5.134;2023-05-21T14:28:25;13.90;;;9.00;;
70545;SDS011;58098;51.680;5.134;2023-05-21T14:30:51;15.27;;;8.70;;
70545;SDS011;58098;51.680;5.134;2023-05-21T14:33:16;11.98;;;9.07;;
70545;SDS011;58098;51.680;5.134;2023-05-21T14:35:41;12.13;;;8.33;;
70545;SDS011;58098;51.680;5.134;2023-05-21T14:38:08;12.50;;;8.85;;
70545;SDS011;58098;51.680;5.134;2023-05-21T14:40:34;13.57;;;8.67;;
70545;SDS011;58098;51.680;5.134;2023-05-21T14:42:59;10.70;;;8.52;;
70545;SDS011;58098;51.680;5.134;2023-05-21T14:45:25;12.70;;;8.37;;
70545;SDS011;58098;51.680;5.134;2023-05-21T14:47:50;17.03;;;8.77;;
70545;SDS011;58098;51.680;5.134;2023-05-21T14:50:15;10.77;;;7.83;;
70545;SDS011;58098;51.680;5.134;2023-05-21T14:52:41;10.15;;;7.28;;
70545;SDS011;58098;51.680;5.134;2023-05-21T14:55:07;12.17;;;7.13;;
70545;SDS011;58098;51.680;5.134;2023-05-21T14:57:33;10.32;;;7.10;;